createdAt,value
2019-03-01T00:00:58.582Z,7.90
2019-03-01T00:03:27.939Z,7.90
2019-03-01T00:06:25.569Z,7.90
2019-03-01T00:09:22.630Z,7.90
2019-03-01T00:12:03.357Z,7.90
2019-03-01T00:14:50.258Z,8.00
2019-03-01T00:17:39.828Z,8.00
2019-03-01T00:20:44.181Z,8.10
2019-03-01T00:23:21.929Z,8.20
2019-03-01T00:26:11.751Z,8.30
2019-03-01T00:28:55.039Z,8.50
2019-03-01T00:31:47.781Z,8.70
2019-03-01T00:34:40.498Z,8.80
2019-03-01T00:37:21.088Z,9.00
2019-03-01T00:40:04.003Z,9.10
2019-03-01T00:42:50.034Z,9.20
2019-03-01T00:45:18.485Z,9.30
2019-03-01T00:47:46.954Z,9.40
2019-03-01T00:50:15.586Z,9.50
2019-03-01T00:52:44.116Z,9.50
2019-03-01T00:55:12.707Z,9.50
2019-03-01T00:57:41.163Z,9.50
2019-03-01T01:00:18.587Z,9.40
2019-03-01T01:02:47.112Z,9.40
2019-03-01T01:05:15.662Z,9.40
2019-03-01T01:07:44.147Z,9.30
2019-03-01T01:10:12.604Z,9.30
2019-03-01T01:12:41.338Z,9.30
2019-03-01T01:15:09.923Z,9.30
2019-03-01T01:17:38.384Z,9.10
2019-03-01T01:20:09.262Z,9.20
2019-03-01T01:22:37.716Z,9.10
2019-03-01T01:25:06.323Z,9.10
2019-03-01T01:27:34.787Z,9.10
2019-03-01T01:30:04.200Z,9.20
2019-03-01T01:32:32.653Z,9.10
2019-03-01T01:35:01.127Z,9.10
2019-03-01T01:37:29.589Z,9.20
2019-03-01T01:39:58.056Z,9.20
2019-03-01T01:42:26.524Z,9.10
2019-03-01T01:44:55.056Z,9.20
2019-03-01T01:47:23.575Z,9.20
2019-03-01T01:49:52.020Z,9.20
2019-03-01T01:52:20.569Z,9.30
2019-03-01T01:54:49.023Z,9.30
2019-03-01T01:57:17.477Z,9.20
2019-03-01T01:59:46.455Z,9.20
2019-03-01T02:02:14.966Z,9.20
2019-03-01T02:04:43.421Z,9.20
2019-03-01T02:07:11.876Z,9.20
2019-03-01T02:09:40.671Z,9.20
2019-03-01T02:12:09.213Z,9.20
2019-03-01T02:14:37.679Z,9.20
2019-03-01T02:17:06.143Z,9.20
2019-03-01T02:19:34.590Z,9.10
2019-03-01T02:22:03.031Z,9.10
2019-03-01T02:24:31.501Z,9.00
2019-03-01T02:27:21.859Z,9.00
2019-03-01T02:29:50.316Z,9.00
2019-03-01T02:32:30.203Z,8.90
2019-03-01T02:34:58.667Z,8.90
2019-03-01T02:37:27.126Z,8.90
2019-03-01T02:39:55.588Z,8.90
2019-03-01T02:42:24.108Z,8.90
2019-03-01T02:44:52.538Z,8.90
2019-03-01T02:47:21.000Z,8.90
2019-03-01T02:49:49.553Z,8.90
2019-03-01T02:52:18.015Z,8.90
2019-03-01T02:54:46.545Z,8.90
2019-03-01T02:57:15.000Z,8.80
2019-03-01T02:59:43.483Z,8.70
2019-03-01T03:02:12.027Z,8.70
2019-03-01T03:04:40.580Z,8.60
2019-03-01T03:07:13.436Z,8.60
2019-03-01T03:09:41.909Z,8.60
2019-03-01T03:12:10.361Z,8.60
2019-03-01T03:14:38.875Z,8.60
2019-03-01T03:17:07.338Z,8.60
2019-03-01T03:19:35.842Z,8.60
2019-03-01T03:22:04.314Z,8.50
2019-03-01T03:24:32.843Z,8.30
2019-03-01T03:27:01.364Z,8.30
2019-03-01T03:29:29.889Z,8.20
2019-03-01T03:31:58.613Z,8.20
2019-03-01T03:34:27.241Z,8.20
2019-03-01T03:36:55.778Z,8.10
2019-03-01T03:39:24.232Z,8.10
2019-03-01T03:41:52.697Z,8.00
2019-03-01T03:44:21.156Z,7.90
2019-03-01T03:46:49.624Z,7.80
2019-03-01T03:49:18.162Z,7.80
2019-03-01T03:51:46.631Z,7.70
2019-03-01T03:54:15.088Z,7.70
2019-03-01T03:56:43.658Z,7.60
2019-03-01T03:59:12.100Z,7.60
2019-03-01T04:01:40.703Z,7.50
2019-03-01T04:04:09.222Z,7.50
2019-03-01T04:06:37.935Z,7.50
2019-03-01T04:09:07.162Z,7.50
2019-03-01T04:11:35.615Z,7.40
2019-03-01T04:14:04.238Z,7.40
2019-03-01T04:16:32.693Z,7.40
2019-03-01T04:19:01.146Z,7.40
2019-03-01T04:21:29.677Z,7.40
2019-03-01T04:23:58.311Z,7.40
2019-03-01T04:26:26.852Z,7.60
2019-03-01T04:28:55.304Z,7.50
2019-03-01T04:31:23.831Z,7.60
2019-03-01T04:33:55.273Z,7.70
2019-03-01T04:36:23.804Z,7.60
2019-03-01T04:38:52.276Z,7.60
2019-03-01T04:41:20.840Z,7.70
2019-03-01T04:43:49.308Z,7.70
2019-03-01T04:46:17.803Z,7.80
2019-03-01T04:48:46.277Z,7.90
2019-03-01T04:51:14.730Z,7.90
2019-03-01T04:53:43.297Z,7.90
2019-03-01T04:56:11.745Z,7.90
2019-03-01T04:58:40.201Z,8.00
2019-03-01T05:01:08.691Z,8.10
2019-03-01T05:03:37.153Z,8.10
2019-03-01T05:06:05.602Z,8.10
2019-03-01T05:08:34.132Z,8.10
2019-03-01T05:11:02.602Z,8.20
2019-03-01T05:13:31.063Z,8.10
2019-03-01T05:15:59.489Z,8.10
2019-03-01T05:18:28.300Z,8.20
2019-03-01T05:20:56.764Z,8.10
2019-03-01T05:23:25.249Z,8.20
2019-03-01T05:25:53.714Z,8.10
2019-03-01T05:28:22.179Z,8.00
2019-03-01T05:31:26.135Z,8.00
2019-03-01T05:33:55.398Z,7.90
2019-03-01T05:36:23.952Z,7.90
2019-03-01T05:38:52.433Z,7.90
2019-03-01T05:41:20.892Z,7.80
2019-03-01T05:43:49.370Z,7.80
2019-03-01T05:46:17.825Z,7.80
2019-03-01T05:48:46.374Z,7.80
2019-03-01T05:51:14.834Z,7.70
2019-03-01T05:53:43.395Z,7.70
2019-03-01T05:56:11.857Z,7.70
2019-03-01T05:58:40.318Z,7.70
2019-03-01T06:01:14.816Z,7.80
2019-03-01T06:03:58.505Z,7.80
2019-03-01T06:06:30.048Z,7.70
2019-03-01T06:09:25.818Z,7.80
2019-03-01T06:12:21.518Z,7.80
2019-03-01T06:15:13.857Z,7.90
2019-03-01T06:18:06.674Z,7.80
2019-03-01T06:20:52.895Z,7.90
2019-03-01T06:23:33.333Z,7.90
2019-03-01T06:26:36.818Z,7.80
2019-03-01T06:29:23.437Z,7.90
2019-03-01T06:31:55.019Z,7.90
2019-03-01T06:34:26.599Z,7.90
2019-03-01T06:37:03.870Z,7.90
2019-03-01T06:40:12.193Z,8.00
2019-03-01T06:42:58.516Z,8.00
2019-03-01T06:45:44.467Z,8.20
2019-03-01T06:48:14.553Z,8.20
2019-03-01T06:50:44.645Z,8.20
2019-03-01T06:53:13.059Z,8.30
2019-03-01T06:55:43.353Z,8.30
2019-03-01T06:58:14.889Z,8.40
2019-03-01T07:00:50.513Z,8.40
2019-03-01T07:03:18.215Z,8.50
2019-03-01T07:05:46.701Z,8.40
2019-03-01T07:08:15.169Z,8.40
2019-03-01T07:10:43.635Z,8.40
2019-03-01T07:13:12.136Z,8.40
2019-03-01T07:15:40.605Z,8.30
2019-03-01T07:18:09.066Z,8.30
2019-03-01T07:20:37.533Z,8.30
2019-03-01T07:23:06.000Z,8.30
2019-03-01T07:25:34.519Z,8.30
2019-03-01T07:28:02.996Z,8.20
2019-03-01T07:30:31.514Z,8.20
2019-03-01T07:33:00.031Z,8.20
2019-03-01T07:35:28.499Z,8.20
2019-03-01T07:37:57.031Z,8.20
2019-03-01T07:40:25.572Z,8.30
2019-03-01T07:42:54.098Z,8.20
2019-03-01T07:45:22.551Z,8.30
2019-03-01T07:47:51.000Z,8.50
2019-03-01T07:50:19.453Z,8.70
2019-03-01T07:52:48.211Z,8.90
2019-03-01T07:55:16.673Z,9.10
2019-03-01T07:57:46.516Z,9.30
2019-03-01T08:00:16.501Z,9.40
2019-03-01T08:02:45.886Z,9.40
2019-03-01T08:05:16.330Z,9.40
2019-03-01T08:07:55.282Z,9.50
2019-03-01T08:10:20.537Z,9.40
2019-03-01T08:12:47.623Z,9.30
2019-03-01T08:15:17.118Z,9.10
2019-03-01T08:17:45.762Z,9.20
2019-03-01T08:20:16.321Z,9.30
2019-03-01T08:22:48.450Z,9.50
2019-03-01T08:25:14.998Z,9.50
2019-03-01T08:27:46.353Z,9.50
2019-03-01T08:30:15.914Z,9.50
2019-03-01T08:32:44.419Z,9.70
2019-03-01T08:35:14.121Z,9.80
2019-03-01T08:37:42.738Z,9.80
2019-03-01T08:40:18.119Z,10.00
2019-03-01T08:42:46.670Z,9.90
2019-03-01T08:45:17.067Z,9.90
2019-03-01T08:47:45.532Z,9.90
2019-03-01T08:50:15.530Z,9.80
2019-03-01T08:52:44.827Z,9.70
2019-03-01T08:55:15.898Z,9.50
2019-03-01T08:57:44.744Z,9.50
2019-03-01T09:00:19.300Z,9.50
2019-03-01T09:02:48.106Z,9.50
2019-03-01T09:05:16.575Z,9.60
2019-03-01T09:07:45.037Z,9.70
2019-03-01T09:10:16.681Z,9.90
2019-03-01T09:12:45.137Z,9.90
2019-03-01T09:15:15.344Z,10.00
2019-03-01T09:17:43.862Z,10.20
2019-03-01T09:20:14.459Z,10.20
2019-03-01T09:22:44.044Z,10.50
2019-03-01T09:25:14.638Z,10.70
2019-03-01T09:27:43.104Z,10.40
2019-03-01T09:30:20.506Z,10.40
2019-03-01T09:32:49.023Z,10.50
2019-03-01T09:35:33.118Z,10.80
2019-03-01T09:38:04.577Z,10.90
2019-03-01T09:40:32.183Z,10.90
2019-03-01T09:43:01.099Z,11.00
2019-03-01T09:45:36.120Z,11.00
2019-03-01T09:48:00.084Z,11.50
2019-03-01T09:50:31.660Z,12.40
2019-03-01T09:52:59.186Z,13.60
2019-03-01T09:55:28.998Z,15.60
2019-03-01T09:57:57.502Z,18.70
2019-03-01T10:00:31.603Z,19.90
2019-03-01T10:03:00.131Z,19.70
2019-03-01T10:05:28.679Z,18.00
2019-03-01T10:07:57.192Z,16.80
2019-03-01T10:10:28.368Z,15.30
2019-03-01T10:12:56.839Z,14.60
2019-03-01T10:15:25.373Z,13.80
2019-03-01T10:17:53.879Z,12.90
2019-03-01T10:20:22.683Z,12.70
2019-03-01T10:22:52.522Z,13.10
2019-03-01T10:25:21.451Z,13.30
2019-03-01T10:27:49.917Z,13.10
2019-03-01T10:30:25.799Z,13.60
2019-03-01T10:32:54.603Z,14.10
2019-03-01T10:35:23.228Z,13.90
2019-03-01T10:37:52.206Z,14.40
2019-03-01T10:40:23.219Z,15.00
2019-03-01T10:42:51.754Z,15.50
2019-03-01T10:45:28.174Z,15.20
2019-03-01T10:47:56.782Z,14.90
2019-03-01T10:50:25.305Z,15.20
2019-03-01T10:52:54.130Z,16.50
2019-03-01T10:55:22.820Z,17.20
2019-03-01T10:57:51.669Z,16.70
2019-03-01T11:00:22.830Z,15.50
2019-03-01T11:02:51.700Z,14.90
2019-03-01T11:05:20.293Z,13.60
2019-03-01T11:07:50.188Z,13.20
2019-03-01T11:10:20.993Z,12.60
2019-03-01T11:12:49.450Z,12.30
2019-03-01T11:15:17.973Z,12.80
2019-03-01T11:17:46.445Z,13.30
2019-03-01T11:20:17.120Z,13.30
2019-03-01T11:22:45.656Z,13.50
2019-03-01T11:25:16.045Z,13.60
2019-03-01T11:27:44.544Z,13.30
2019-03-01T11:30:18.972Z,12.90
2019-03-01T11:32:47.429Z,12.60
2019-03-01T11:35:16.907Z,12.40
2019-03-01T11:37:45.570Z,12.20
2019-03-01T11:40:20.213Z,12.30
2019-03-01T11:42:48.721Z,12.60
2019-03-01T11:45:17.519Z,13.20
2019-03-01T11:47:46.170Z,14.60
2019-03-01T11:50:22.488Z,15.20
2019-03-01T11:52:50.939Z,15.00
2019-03-01T11:55:19.611Z,14.30
2019-03-01T11:57:49.165Z,14.20
2019-03-01T12:00:20.014Z,13.50
2019-03-01T12:02:49.185Z,13.20
2019-03-01T12:05:18.081Z,12.70
2019-03-01T12:07:46.643Z,12.70
2019-03-01T12:10:17.793Z,12.70
2019-03-01T12:12:46.389Z,12.40
2019-03-01T12:15:14.883Z,12.70
2019-03-01T12:17:43.649Z,12.80
2019-03-01T12:20:14.703Z,12.40
2019-03-01T12:22:43.274Z,12.20
2019-03-01T12:25:14.885Z,12.00
2019-03-01T12:27:43.366Z,11.60
2019-03-01T12:30:14.544Z,11.30
2019-03-01T12:32:43.130Z,11.10
2019-03-01T12:35:12.219Z,10.90
2019-03-01T12:37:40.712Z,10.90
2019-03-01T12:40:14.887Z,10.80
2019-03-01T12:42:43.427Z,10.80
2019-03-01T12:45:16.132Z,10.60
2019-03-01T12:47:44.671Z,10.70
2019-03-01T12:50:14.390Z,10.50
2019-03-01T12:52:43.281Z,10.50
2019-03-01T12:55:14.284Z,10.50
2019-03-01T12:57:42.760Z,10.60
2019-03-01T13:00:23.359Z,10.80
2019-03-01T13:02:51.839Z,10.90
2019-03-01T13:05:20.302Z,11.00
2019-03-01T13:07:48.812Z,10.90
2019-03-01T13:10:20.308Z,11.00
2019-03-01T13:12:48.822Z,10.90
2019-03-01T13:15:17.286Z,10.80
2019-03-01T13:17:45.914Z,10.90
2019-03-01T13:20:16.863Z,10.90
2019-03-01T13:22:45.348Z,10.80
2019-03-01T13:25:15.610Z,10.60
2019-03-01T13:27:44.347Z,10.70
2019-03-01T13:30:21.731Z,10.80
2019-03-01T13:32:50.200Z,10.70
2019-03-01T13:35:22.394Z,10.60
2019-03-01T13:37:52.080Z,10.40
2019-03-01T13:40:24.330Z,10.40
2019-03-01T13:42:52.069Z,10.40
2019-03-01T13:45:25.454Z,10.60
2019-03-01T13:47:53.935Z,10.80
2019-03-01T13:50:23.262Z,10.80
2019-03-01T13:52:51.744Z,10.90
2019-03-01T13:55:22.270Z,10.80
2019-03-01T13:57:51.331Z,10.80
2019-03-01T14:00:21.617Z,10.60
2019-03-01T14:02:50.563Z,10.60
2019-03-01T14:05:19.845Z,10.50
2019-03-01T14:08:09.506Z,10.40
2019-03-01T14:10:38.568Z,10.40
2019-03-01T14:13:11.248Z,10.50
2019-03-01T14:15:39.834Z,10.60
2019-03-01T14:18:08.469Z,10.60
2019-03-01T14:20:36.943Z,10.70
2019-03-01T14:23:05.397Z,10.80
2019-03-01T14:25:34.053Z,10.80
2019-03-01T14:28:05.148Z,10.90
2019-03-01T14:30:33.414Z,11.00
2019-03-01T14:33:02.015Z,10.90
2019-03-01T14:35:30.561Z,10.90
2019-03-01T14:37:59.076Z,10.80
2019-03-01T14:40:27.563Z,10.90
2019-03-01T14:42:56.034Z,11.10
2019-03-01T14:45:29.820Z,11.20
2019-03-01T14:47:58.360Z,11.50
2019-03-01T14:50:29.845Z,11.50
2019-03-01T14:52:58.953Z,11.50
2019-03-01T14:55:38.964Z,11.50
2019-03-01T14:58:25.344Z,11.60
2019-03-01T15:01:02.599Z,11.60
2019-03-01T15:03:35.609Z,11.70
2019-03-01T15:06:05.083Z,11.60
2019-03-01T15:08:33.987Z,11.60
2019-03-01T15:11:09.157Z,11.40
2019-03-01T15:13:37.906Z,11.10
2019-03-01T15:16:07.481Z,11.00
2019-03-01T15:18:36.902Z,11.00
2019-03-01T15:21:06.702Z,10.90
2019-03-01T15:23:35.381Z,10.80
2019-03-01T15:26:04.233Z,10.60
2019-03-01T15:28:32.993Z,10.50
2019-03-01T15:31:01.442Z,10.40
2019-03-01T15:33:31.978Z,10.30
2019-03-01T15:36:00.466Z,10.40
2019-03-01T15:38:29.001Z,10.40
2019-03-01T15:40:57.543Z,10.50
2019-03-01T15:43:26.452Z,10.50
2019-03-01T15:45:56.721Z,10.50
2019-03-01T15:48:25.179Z,10.60
2019-03-01T15:50:53.633Z,10.50
2019-03-01T15:53:25.050Z,10.60
2019-03-01T15:55:52.910Z,10.60
2019-03-01T15:58:21.373Z,10.40
2019-03-01T16:00:55.351Z,10.40
2019-03-01T16:03:26.316Z,10.40
2019-03-01T16:05:54.909Z,10.30
2019-03-01T16:08:23.363Z,10.10
2019-03-01T16:10:51.829Z,10.10
2019-03-01T16:13:20.628Z,10.00
2019-03-01T16:15:49.099Z,10.00
2019-03-01T16:18:17.682Z,10.00
2019-03-01T16:20:47.299Z,10.00
2019-03-01T16:23:15.891Z,9.90
2019-03-01T16:25:44.380Z,9.90
2019-03-01T16:28:14.624Z,9.80
2019-03-01T16:30:43.019Z,9.80
2019-03-01T16:33:11.490Z,9.70
2019-03-01T16:35:39.956Z,9.70
2019-03-01T16:38:10.335Z,9.70
2019-03-01T16:40:38.774Z,9.70
2019-03-01T16:43:07.216Z,9.60
2019-03-01T16:45:36.300Z,9.50
2019-03-01T16:48:04.875Z,9.50
2019-03-01T16:50:33.344Z,9.40
2019-03-01T16:53:04.762Z,9.40
2019-03-01T16:55:32.080Z,9.50
2019-03-01T16:58:06.723Z,9.40
2019-03-01T17:00:30.924Z,9.40
2019-03-01T17:03:16.558Z,9.40
2019-03-01T17:05:43.182Z,9.30
2019-03-01T17:08:11.616Z,9.30
2019-03-01T17:10:40.093Z,9.40
2019-03-01T17:13:08.538Z,9.30
2019-03-01T17:15:54.637Z,9.20
2019-03-01T17:18:21.125Z,9.30
2019-03-01T17:20:49.600Z,9.30
2019-03-01T17:23:18.055Z,9.30
2019-03-01T17:25:47.643Z,9.30
2019-03-01T17:28:16.381Z,9.30
2019-03-01T17:30:50.350Z,9.30
2019-03-01T17:33:16.964Z,9.30
2019-03-01T17:35:45.484Z,9.30
2019-03-01T17:38:14.041Z,9.30
2019-03-01T17:40:44.933Z,9.20
2019-03-01T17:43:13.460Z,9.10
2019-03-01T17:45:41.977Z,9.00
2019-03-01T17:48:10.436Z,9.00
2019-03-01T17:50:41.736Z,8.90
2019-03-01T17:53:09.481Z,8.90
2019-03-01T17:55:38.865Z,8.80
2019-03-01T17:58:08.833Z,8.80
2019-03-01T18:00:44.524Z,8.80
2019-03-01T18:03:12.989Z,8.70
2019-03-01T18:05:41.600Z,8.70
2019-03-01T18:08:10.191Z,8.70
2019-03-01T18:10:38.649Z,8.60
2019-03-01T18:13:07.175Z,8.60
2019-03-01T18:15:35.702Z,8.60
2019-03-01T18:18:04.237Z,8.60
2019-03-01T18:20:33.981Z,8.60
2019-03-01T18:23:03.202Z,8.50
2019-03-01T18:25:31.915Z,8.50
2019-03-01T18:28:00.451Z,8.40
2019-03-01T18:30:35.110Z,8.40
2019-03-01T18:33:03.623Z,8.40
2019-03-01T18:35:32.204Z,8.40
2019-03-01T18:38:00.663Z,8.30
2019-03-01T18:40:29.147Z,8.30
2019-03-01T18:42:57.621Z,8.30
2019-03-01T18:45:29.800Z,8.30
2019-03-01T18:47:58.277Z,8.30
2019-03-01T18:50:32.347Z,8.20
2019-03-01T18:53:03.853Z,8.20
2019-03-01T18:55:32.531Z,8.30
2019-03-01T18:58:01.297Z,8.20
2019-03-01T19:00:36.927Z,8.20
2019-03-01T19:03:10.934Z,8.30
2019-03-01T19:05:41.186Z,8.30
2019-03-01T19:08:09.953Z,8.30
2019-03-01T19:10:38.577Z,8.30
2019-03-01T19:13:07.293Z,8.30
2019-03-01T19:15:36.332Z,8.30
2019-03-01T19:18:05.903Z,8.30
2019-03-01T19:20:44.574Z,8.30
2019-03-01T19:23:13.211Z,8.30
2019-03-01T19:25:42.008Z,8.30
2019-03-01T19:28:10.637Z,8.30
2019-03-01T19:30:39.380Z,8.30
2019-03-01T19:33:08.021Z,8.30
2019-03-01T19:35:36.641Z,8.30
2019-03-01T19:38:05.411Z,8.60
2019-03-01T19:42:39.599Z,8.30
2019-03-01T19:45:11.417Z,8.20
2019-03-01T19:47:39.929Z,8.20
2019-03-01T19:50:17.580Z,8.20
2019-03-01T19:52:46.951Z,8.20
2019-03-01T19:55:17.193Z,8.20
2019-03-01T19:57:45.653Z,8.20
2019-03-01T20:00:27.308Z,8.20
2019-03-01T20:03:15.437Z,8.20
2019-03-01T20:05:44.098Z,8.20
2019-03-01T20:08:12.558Z,8.10
2019-03-01T20:10:41.036Z,8.20
2019-03-01T20:13:42.208Z,8.20
2019-03-01T20:16:10.760Z,8.20
2019-03-01T20:18:41.770Z,8.20
2019-03-01T20:21:10.561Z,8.20
2019-03-01T20:23:39.136Z,8.20
2019-03-01T20:26:07.632Z,8.10
2019-03-01T20:28:36.081Z,8.20
2019-03-01T20:31:04.962Z,8.10
2019-03-01T20:33:34.321Z,8.10
2019-03-01T20:36:02.768Z,8.00
2019-03-01T20:38:31.321Z,7.90
2019-03-01T20:41:02.906Z,7.90
2019-03-01T20:43:30.003Z,7.90
2019-03-01T20:45:58.548Z,7.90
2019-03-01T20:48:28.923Z,8.00
2019-03-01T20:50:57.185Z,7.80
2019-03-01T20:53:25.705Z,7.80
2019-03-01T20:55:54.186Z,7.80
2019-03-01T20:58:22.696Z,7.80
2019-03-01T21:00:51.216Z,7.80
2019-03-01T21:03:20.093Z,7.80
2019-03-01T21:05:48.557Z,7.80
2019-03-01T21:08:17.290Z,7.80
2019-03-01T21:10:46.771Z,7.80
2019-03-01T21:13:16.269Z,7.80
2019-03-01T21:15:44.734Z,7.70
2019-03-01T21:18:13.197Z,7.80
2019-03-01T21:20:50.577Z,7.70
2019-03-01T21:23:18.827Z,7.70
2019-03-01T21:25:47.293Z,7.70
2019-03-01T21:28:15.836Z,7.70
2019-03-01T21:30:45.606Z,7.70
2019-03-01T21:33:14.146Z,7.70
2019-03-01T21:35:42.603Z,7.70
2019-03-01T21:38:13.914Z,7.70
2019-03-01T21:40:41.471Z,7.70
2019-03-01T21:43:10.039Z,7.60
2019-03-01T21:45:38.519Z,7.70
2019-03-01T21:48:07.167Z,7.70
2019-03-01T21:50:38.728Z,7.60
2019-03-01T21:53:06.711Z,7.70
2019-03-01T21:55:35.380Z,7.60
2019-03-01T21:58:06.609Z,7.60
2019-03-01T22:00:34.852Z,7.60
2019-03-01T22:03:03.482Z,7.60
2019-03-01T22:05:31.993Z,7.50
2019-03-01T22:08:00.999Z,7.50
2019-03-01T22:10:31.566Z,7.50
2019-03-01T22:13:00.427Z,7.40
2019-03-01T22:15:31.686Z,7.40
2019-03-01T22:18:00.169Z,7.40
2019-03-01T22:20:28.710Z,7.40
2019-03-01T22:22:57.229Z,7.40
2019-03-01T22:25:25.758Z,7.40
2019-03-01T22:27:54.237Z,7.40
2019-03-01T22:30:32.973Z,7.40
2019-03-01T22:33:01.478Z,7.40
2019-03-01T22:35:29.928Z,7.40
2019-03-01T22:38:01.012Z,7.40
2019-03-01T22:40:29.418Z,7.40
2019-03-01T22:42:58.134Z,7.30
2019-03-01T22:45:26.681Z,7.40
2019-03-01T22:47:55.172Z,7.40
2019-03-01T22:50:23.751Z,7.40
2019-03-01T22:52:52.253Z,7.40
2019-03-01T22:55:21.177Z,7.30
2019-03-01T22:57:50.264Z,7.40
2019-03-01T23:00:47.444Z,7.30
2019-03-01T23:03:19.028Z,7.30
2019-03-01T23:05:47.067Z,7.30
2019-03-01T23:08:15.546Z,7.30
2019-03-01T23:10:44.205Z,7.20
2019-03-01T23:13:12.795Z,7.30
2019-03-01T23:15:44.597Z,7.20
2019-03-01T23:18:13.406Z,7.20
2019-03-01T23:20:41.945Z,7.20
2019-03-01T23:23:10.411Z,7.20
2019-03-01T23:25:38.862Z,7.20
2019-03-01T23:28:08.039Z,7.30
2019-03-01T23:30:37.741Z,7.20
2019-03-01T23:33:06.234Z,7.20
2019-03-01T23:35:34.774Z,7.20
2019-03-01T23:38:03.249Z,7.20
2019-03-01T23:40:32.814Z,7.10
2019-03-01T23:43:02.041Z,7.10
2019-03-01T23:45:30.602Z,7.20
2019-03-01T23:47:59.055Z,7.10
2019-03-01T23:50:27.520Z,7.00
2019-03-01T23:52:58.781Z,7.00
2019-03-01T23:55:26.253Z,7.00
2019-03-01T23:57:54.714Z,7.00
